sensor_id;sensor_type;location;lat;lon;timestamp;pressure;altitude;pressure_sealevel;temperature;humidity
37634;BME280;32048;49.902;22.508;2023-06-04T00:02:24;99234.94;;;4.61;100.00
37634;BME280;32048;49.902;22.508;2023-06-04T00:04:52;99229.81;;;4.56;100.00
37634;BME280;32048;49.902;22.508;2023-06-04T00:07:19;99224.59;;;4.55;100.00
37634;BME280;32048;49.902;22.508;2023-06-04T00:09:46;99226.47;;;4.50;100.00
37634;BME280;32048;49.902;22.508;2023-06-04T00:12:14;99222.13;;;4.49;100.00
37634;BME280;32048;49.902;22.508;2023-06-04T00:14:42;99221.34;;;4.44;100.00
37634;BME280;32048;49.902;22.508;2023-06-04T00:17:10;99223.19;;;4.38;100.00
37634;BME280;32048;49.902;22.508;2023-06-04T00:19:40;99223.25;;;4.35;100.00
37634;BME280;32048;49.902;22.508;2023-06-04T00:22:08;99215.44;;;4.34;100.00
37634;BME280;32048;49.902;22.508;2023-06-04T00:24:37;99213.78;;;4.30;100.00
37634;BME280;32048;49.902;22.508;2023-06-04T00:27:10;99215.63;;;4.25;100.00
37634;BME280;32048;49.902;22.508;2023-06-04T00:29:37;99214.81;;;4.21;100.00
37634;BME280;32048;49.902;22.508;2023-06-04T00:32:04;99210.56;;;4.17;100.00
37634;BME280;32048;49.902;22.508;2023-06-04T00:34:31;99211.50;;;4.13;100.00
37634;BME280;32048;49.902;22.508;2023-06-04T00:36:58;99214.13;;;4.11;100.00
37634;BME280;32048;49.902;22.508;2023-06-04T00:39:28;99209.84;;;4.07;100.00
37634;BME280;32048;49.902;22.508;2023-06-04T00:41:56;99200.31;;;4.03;100.00
37634;BME280;32048;49.902;22.508;2023-06-04T00:44:23;99202.16;;;4.00;100.00
37634;BME280;32048;49.902;22.508;2023-06-04T00:46:52;99203.97;;;3.94;100.00
37634;BME280;32048;49.902;22.508;2023-06-04T00:49:20;99201.50;;;3.87;100.00
37634;BME280;32048;49.902;22.508;2023-06-04T00:51:47;99202.41;;;3.86;100.00
37634;BME280;32048;49.902;22.508;2023-06-04T00:54:15;99198.91;;;3.85;100.00
37634;BME280;32048;49.902;22.508;2023-06-04T00:56:47;99205.06;;;3.83;100.00
37634;BME280;32048;49.902;22.508;2023-06-04T00:59:14;99201.59;;;3.82;100.00
37634;BME280;32048;49.902;22.508;2023-06-04T01:01:51;99192.91;;;3.80;100.00
37634;BME280;32048;49.902;22.508;2023-06-04T01:04:27;99197.31;;;3.77;100.00
37634;BME280;32048;49.902;22.508;2023-06-04T01:06:57;99189.56;;;3.72;100.00
37634;BME280;32048;49.902;22.508;2023-06-04T01:09:28;99195.69;;;3.69;100.00
37634;BME280;32048;49.902;22.508;2023-06-04T01:11:56;99197.53;;;3.66;100.00
37634;BME280;32048;49.902;22.508;2023-06-04T01:14:28;99198.44;;;3.63;100.00
37634;BME280;32048;49.902;22.508;2023-06-04T01:17:10;99195.06;;;3.57;100.00
37634;BME280;32048;49.902;22.508;2023-06-04T01:22:17;99192.56;;;3.50;100.00
37634;BME280;32048;49.902;22.508;2023-06-04T01:24:53;99189.97;;;3.47;100.00
37634;BME280;32048;49.902;22.508;2023-06-04T01:27:23;99189.19;;;3.42;100.00
37634;BME280;32048;49.902;22.508;2023-06-04T01:29:50;99192.72;;;3.40;100.00
37634;BME280;32048;49.902;22.508;2023-06-04T01:32:18;99189.28;;;3.36;100.00
37634;BME280;32048;49.902;22.508;2023-06-04T01:34:46;99184.06;;;3.36;100.00
37634;BME280;32048;49.902;22.508;2023-06-04T01:37:13;99189.34;;;3.33;100.00
37634;BME280;32048;49.902;22.508;2023-06-04T01:39:40;99191.13;;;3.29;100.00
37634;BME280;32048;49.902;22.508;2023-06-04T01:42:08;99183.34;;;3.26;100.00
37634;BME280;32048;49.902;22.508;2023-06-04T01:44:35;99181.66;;;3.24;100.00
37634;BME280;32048;49.902;22.508;2023-06-04T01:47:02;99185.19;;;3.21;100.00
37634;BME280;32048;49.902;22.508;2023-06-04T01:49:29;99181.72;;;3.19;100.00
37634;BME280;32048;49.902;22.508;2023-06-04T01:51:56;99184.41;;;3.15;100.00
37634;BME280;32048;49.902;22.508;2023-06-04T01:54:23;99185.25;;;3.15;100.00
37634;BME280;32048;49.902;22.508;2023-06-04T01:56:51;99173.16;;;3.11;100.00
37634;BME280;32048;49.902;22.508;2023-06-04T01:59:17;99186.19;;;3.11;100.00
37634;BME280;32048;49.902;22.508;2023-06-04T02:01:45;99182.78;;;3.07;100.00
37634;BME280;32048;49.902;22.508;2023-06-04T02:04:12;99194.09;;;3.05;100.00
37634;BME280;32048;49.902;22.508;2023-06-04T02:06:39;99188.09;;;3.01;100.00
37634;BME280;32048;49.902;22.508;2023-06-04T02:09:06;99187.25;;;2.98;100.00
37634;BME280;32048;49.902;22.508;2023-06-04T02:11:33;99189.00;;;2.97;100.00
37634;BME280;32048;49.902;22.508;2023-06-04T02:14:00;99184.69;;;2.95;100.00
37634;BME280;32048;49.902;22.508;2023-06-04T02:16:27;99190.84;;;2.90;100.00
37634;BME280;32048;49.902;22.508;2023-06-04T02:18:54;99191.75;;;2.86;100.00
37634;BME280;32048;49.902;22.508;2023-06-04T02:21:21;99199.63;;;2.85;100.00
37634;BME280;32048;49.902;22.508;2023-06-04T02:23:48;99200.50;;;2.82;100.00
37634;BME280;32048;49.902;22.508;2023-06-04T02:26:16;99200.50;;;2.82;100.00
37634;BME280;32048;49.902;22.508;2023-06-04T02:28:43;99197.94;;;2.81;100.00
37634;BME280;32048;49.902;22.508;2023-06-04T02:31:10;99196.25;;;2.78;100.00
37634;BME280;32048;49.902;22.508;2023-06-04T02:33:37;99200.63;;;2.76;100.00
37634;BME280;32048;49.902;22.508;2023-06-04T02:36:05;99199.72;;;2.76;100.00
37634;BME280;32048;49.902;22.508;2023-06-04T02:38:32;99205.00;;;2.73;100.00
37634;BME280;32048;49.902;22.508;2023-06-04T02:41:00;99209.34;;;2.72;100.00
37634;BME280;32048;49.902;22.508;2023-06-04T02:43:27;99214.56;;;2.74;100.00
37634;BME280;32048;49.902;22.508;2023-06-04T02:45:54;99211.06;;;2.75;100.00
37634;BME280;32048;49.902;22.508;2023-06-04T02:48:21;99209.28;;;2.77;100.00
37634;BME280;32048;49.902;22.508;2023-06-04T02:50:48;99205.78;;;2.79;100.00
37634;BME280;32048;49.902;22.508;2023-06-04T02:53:15;99208.31;;;2.84;100.00
37634;BME280;32048;49.902;22.508;2023-06-04T02:55:42;99203.94;;;2.87;100.00
37634;BME280;32048;49.902;22.508;2023-06-04T02:58:09;99205.63;;;2.91;100.00
37634;BME280;32048;49.902;22.508;2023-06-04T03:00:36;99216.84;;;2.97;100.00
37634;BME280;32048;49.902;22.508;2023-06-04T03:03:03;99209.81;;;3.03;100.00
37634;BME280;32048;49.902;22.508;2023-06-04T03:05:31;99200.16;;;3.08;100.00
37634;BME280;32048;49.902;22.508;2023-06-04T03:08:01;99213.13;;;3.15;100.00
37634;BME280;32048;49.902;22.508;2023-06-04T03:10:29;99211.22;;;3.23;100.00
37634;BME280;32048;49.902;22.508;2023-06-04T03:12:58;99208.50;;;3.32;100.00
37634;BME280;32048;49.902;22.508;2023-06-04T03:15:25;99209.22;;;3.40;100.00
37634;BME280;32048;49.902;22.508;2023-06-04T03:17:52;99203.84;;;3.51;100.00
37634;BME280;32048;49.902;22.508;2023-06-04T03:20:19;99211.50;;;3.63;100.00
37634;BME280;32048;49.902;22.508;2023-06-04T03:22:51;99204.28;;;3.76;100.00
37634;BME280;32048;49.902;22.508;2023-06-04T03:25:19;99207.56;;;3.89;100.00
37634;BME280;32048;49.902;22.508;2023-06-04T03:27:45;99207.38;;;4.00;100.00
37634;BME280;32048;49.902;22.508;2023-06-04T03:30:13;99201.97;;;4.10;100.00
37634;BME280;32048;49.902;22.508;2023-06-04T03:32:40;99207.00;;;4.20;100.00
37634;BME280;32048;49.902;22.508;2023-06-04T03:35:07;99205.06;;;4.29;100.00
37634;BME280;32048;49.902;22.508;2023-06-04T03:37:34;99209.19;;;4.41;100.00
37634;BME280;32048;49.902;22.508;2023-06-04T03:40:02;99208.03;;;4.56;100.00
37634;BME280;32048;49.902;22.508;2023-06-04T03:42:30;99206.81;;;4.72;100.00
37634;BME280;32048;49.902;22.508;2023-06-04T03:44:57;99202.13;;;4.88;100.00
37634;BME280;32048;49.902;22.508;2023-06-04T03:47:26;99203.47;;;5.06;100.00
37634;BME280;32048;49.902;22.508;2023-06-04T03:49:53;99211.81;;;5.24;100.00
37634;BME280;32048;49.902;22.508;2023-06-04T03:52:20;99204.47;;;5.38;100.00
37634;BME280;32048;49.902;22.508;2023-06-04T03:54:47;99208.47;;;5.54;100.00
37634;BME280;32048;49.902;22.508;2023-06-04T03:57:14;99202.84;;;5.70;100.00
37634;BME280;32048;49.902;22.508;2023-06-04T03:59:41;99208.47;;;5.89;100.00
37634;BME280;32048;49.902;22.508;2023-06-04T04:02:08;99213.16;;;6.12;100.00
37634;BME280;32048;49.902;22.508;2023-06-04T04:04:36;99204.56;;;6.39;100.00
37634;BME280;32048;49.902;22.508;2023-06-04T04:07:03;99198.47;;;6.69;100.00
37634;BME280;32048;49.902;22.508;2023-06-04T04:09:30;99206.34;;;6.98;100.00
37634;BME280;32048;49.902;22.508;2023-06-04T04:11:57;99201.16;;;7.25;100.00
37634;BME280;32048;49.902;22.508;2023-06-04T04:14:24;99205.59;;;7.51;100.00
37634;BME280;32048;49.902;22.508;2023-06-04T04:16:51;99204.75;;;7.76;100.00
37634;BME280;32048;49.902;22.508;2023-06-04T04:19:18;99197.72;;;8.03;100.00
37634;BME280;32048;49.902;22.508;2023-06-04T04:21:45;99199.22;;;8.35;100.00
37634;BME280;32048;49.902;22.508;2023-06-04T04:24:25;99198.81;;;8.71;100.00
37634;BME280;32048;49.902;22.508;2023-06-04T04:26:53;99197.41;;;9.08;100.00
37634;BME280;32048;49.902;22.508;2023-06-04T04:29:21;99192.38;;;9.46;100.00
37634;BME280;32048;49.902;22.508;2023-06-04T04:31:52;99190.91;;;9.83;100.00
37634;BME280;32048;49.902;22.508;2023-06-04T04:34:19;99193.75;;;10.19;97.15
37634;BME280;32048;49.902;22.508;2023-06-04T04:36:48;99197.97;;;10.44;85.43
37634;BME280;32048;49.902;22.508;2023-06-04T04:39:24;99195.25;;;10.66;85.19
37634;BME280;32048;49.902;22.508;2023-06-04T04:41:51;99207.53;;;10.86;84.71
37634;BME280;32048;49.902;22.508;2023-06-04T04:44:19;99202.19;;;11.06;80.89
37634;BME280;32048;49.902;22.508;2023-06-04T04:46:48;99200.41;;;11.26;81.41
37634;BME280;32048;49.902;22.508;2023-06-04T04:49:16;99196.84;;;11.44;80.60
37634;BME280;32048;49.902;22.508;2023-06-04T04:51:42;99200.47;;;11.60;79.33
37634;BME280;32048;49.902;22.508;2023-06-04T04:54:10;99195.13;;;11.79;78.11
37634;BME280;32048;49.902;22.508;2023-06-04T04:56:37;99196.66;;;12.02;77.90
37634;BME280;32048;49.902;22.508;2023-06-04T04:59:04;99195.16;;;12.32;75.91
37634;BME280;32048;49.902;22.508;2023-06-04T05:01:32;99191.03;;;12.59;72.96
37634;BME280;32048;49.902;22.508;2023-06-04T05:03:59;99181.69;;;12.85;72.19
37634;BME280;32048;49.902;22.508;2023-06-04T05:06:28;99196.19;;;13.12;70.87
37634;BME280;32048;49.902;22.508;2023-06-04T05:08:56;99190.97;;;13.42;70.91
37634;BME280;32048;49.902;22.508;2023-06-04T05:11:23;99196.81;;;13.79;70.36
37634;BME280;32048;49.902;22.508;2023-06-04T05:13:50;99186.41;;;14.20;68.69
37634;BME280;32048;49.902;22.508;2023-06-04T05:16:17;99189.63;;;14.55;61.83
37634;BME280;32048;49.902;22.508;2023-06-04T05:18:47;99198.53;;;14.83;62.84
37634;BME280;32048;49.902;22.508;2023-06-04T05:21:18;99196.69;;;15.12;59.07
37634;BME280;32048;49.902;22.508;2023-06-04T05:23:45;99191.53;;;15.24;59.51
37634;BME280;32048;49.902;22.508;2023-06-04T05:26:15;99193.44;;;15.36;58.83
37634;BME280;32048;49.902;22.508;2023-06-04T05:28:42;99191.09;;;15.44;57.81
37634;BME280;32048;49.902;22.508;2023-06-04T05:31:10;99201.41;;;15.36;58.42
37634;BME280;32048;49.902;22.508;2023-06-04T05:33:40;99202.06;;;15.67;59.60
37634;BME280;32048;49.902;22.508;2023-06-04T05:36:07;99194.31;;;16.04;57.22
37634;BME280;32048;49.902;22.508;2023-06-04T05:38:34;99196.06;;;16.43;54.75
37634;BME280;32048;49.902;22.508;2023-06-04T05:41:02;99199.63;;;16.82;54.13
37634;BME280;32048;49.902;22.508;2023-06-04T05:43:29;99195.41;;;17.03;50.55
37634;BME280;32048;49.902;22.508;2023-06-04T05:45:56;99188.94;;;17.32;50.44
37634;BME280;32048;49.902;22.508;2023-06-04T05:48:24;99192.97;;;17.37;48.77
37634;BME280;32048;49.902;22.508;2023-06-04T05:50:51;99195.47;;;17.28;49.50
37634;BME280;32048;49.902;22.508;2023-06-04T05:53:18;99181.88;;;17.31;49.83
37634;BME280;32048;49.902;22.508;2023-06-04T05:55:45;99189.91;;;17.55;48.83
37634;BME280;32048;49.902;22.508;2023-06-04T05:58:12;99190.00;;;17.90;47.57
37634;BME280;32048;49.902;22.508;2023-06-04T06:00:39;99183.75;;;18.14;44.98
37634;BME280;32048;49.902;22.508;2023-06-04T06:03:07;99182.94;;;18.24;45.49
37634;BME280;32048;49.902;22.508;2023-06-04T06:05:34;99177.50;;;18.48;45.81
37634;BME280;32048;49.902;22.508;2023-06-04T06:08:02;99182.19;;;18.80;44.81
37634;BME280;32048;49.902;22.508;2023-06-04T06:10:29;99173.88;;;19.28;44.31
37634;BME280;32048;49.902;22.508;2023-06-04T06:12:56;99179.38;;;19.70;43.35
37634;BME280;32048;49.902;22.508;2023-06-04T06:15:23;99177.06;;;19.98;41.33
37634;BME280;32048;49.902;22.508;2023-06-04T06:17:51;99181.47;;;20.20;43.20
37634;BME280;32048;49.902;22.508;2023-06-04T06:20:18;99181.28;;;20.12;40.38
37634;BME280;32048;49.902;22.508;2023-06-04T06:22:46;99173.66;;;20.17;42.28
37634;BME280;32048;49.902;22.508;2023-06-04T06:25:13;99179.38;;;20.45;41.40
37634;BME280;32048;49.902;22.508;2023-06-04T06:27:40;99184.59;;;20.46;39.62
37634;BME280;32048;49.902;22.508;2023-06-04T06:30:08;99182.09;;;20.75;39.05
37634;BME280;32048;49.902;22.508;2023-06-04T06:32:35;99188.63;;;20.83;37.75
37634;BME280;32048;49.902;22.508;2023-06-04T06:35:03;99184.97;;;20.84;38.53
37634;BME280;32048;49.902;22.508;2023-06-04T06:37:30;99181.50;;;20.51;38.00
37634;BME280;32048;49.902;22.508;2023-06-04T06:39:57;99182.06;;;20.03;39.25
37634;BME280;32048;49.902;22.508;2023-06-04T06:42:24;99175.06;;;20.32;39.88
37634;BME280;32048;49.902;22.508;2023-06-04T06:44:51;99179.16;;;20.79;39.26
37634;BME280;32048;49.902;22.508;2023-06-04T06:47:18;99176.31;;;21.21;36.79
37634;BME280;32048;49.902;22.508;2023-06-04T06:49:45;99180.41;;;21.46;36.60
37634;BME280;32048;49.902;22.508;2023-06-04T06:52:13;99190.72;;;21.50;35.93
37634;BME280;32048;49.902;22.508;2023-06-04T06:54:40;99188.47;;;21.15;34.84
37634;BME280;32048;49.902;22.508;2023-06-04T06:57:07;99186.88;;;21.03;36.68
37634;BME280;32048;49.902;22.508;2023-06-04T06:59:35;99187.13;;;20.90;35.26
37634;BME280;32048;49.902;22.508;2023-06-04T07:02:04;99188.44;;;20.53;36.16
37634;BME280;32048;49.902;22.508;2023-06-04T07:04:32;99183.22;;;20.10;37.07
37634;BME280;32048;49.902;22.508;2023-06-04T07:06:59;99175.22;;;19.78;38.33
37634;BME280;32048;49.902;22.508;2023-06-04T07:09:26;99184.28;;;19.43;37.47
37634;BME280;32048;49.902;22.508;2023-06-04T07:11:53;99181.25;;;19.47;39.71
37634;BME280;32048;49.902;22.508;2023-06-04T07:14:20;99184.63;;;19.93;38.93
37634;BME280;32048;49.902;22.508;2023-06-04T07:16:48;99168.38;;;20.06;36.97
37634;BME280;32048;49.902;22.508;2023-06-04T07:19:15;99186.63;;;19.80;39.30
37634;BME280;32048;49.902;22.508;2023-06-04T07:21:42;99182.16;;;20.01;39.73
37634;BME280;32048;49.902;22.508;2023-06-04T07:24:09;99181.91;;;20.46;37.63
37634;BME280;32048;49.902;22.508;2023-06-04T07:26:37;99182.59;;;20.90;37.65
37634;BME280;32048;49.902;22.508;2023-06-04T07:29:04;99191.09;;;20.95;37.71
37634;BME280;32048;49.902;22.508;2023-06-04T07:31:31;99191.91;;;21.27;37.80
37634;BME280;32048;49.902;22.508;2023-06-04T07:33:58;99202.72;;;21.46;35.76
37634;BME280;32048;49.902;22.508;2023-06-04T07:36:25;99195.31;;;21.38;36.37
37634;BME280;32048;49.902;22.508;2023-06-04T07:38:52;99186.34;;;21.18;37.92
37634;BME280;32048;49.902;22.508;2023-06-04T07:41:19;99186.81;;;21.33;37.17
37634;BME280;32048;49.902;22.508;2023-06-04T07:43:46;99182.56;;;21.91;37.08
37634;BME280;32048;49.902;22.508;2023-06-04T07:46:14;99185.66;;;22.25;35.38
37634;BME280;32048;49.902;22.508;2023-06-04T07:48:45;99186.44;;;22.65;35.64
37634;BME280;32048;49.902;22.508;2023-06-04T07:51:13;99178.78;;;22.97;34.71
37634;BME280;32048;49.902;22.508;2023-06-04T07:53:41;99187.09;;;23.14;33.49
37634;BME280;32048;49.902;22.508;2023-06-04T07:56:09;99186.44;;;23.12;33.24
37634;BME280;32048;49.902;22.508;2023-06-04T07:58:36;99180.38;;;23.28;33.94
37634;BME280;32048;49.902;22.508;2023-06-04T08:01:03;99170.72;;;23.71;33.50
37634;BME280;32048;49.902;22.508;2023-06-04T08:03:30;99185.31;;;23.78;31.51
37634;BME280;32048;49.902;22.508;2023-06-04T08:05:58;99184.34;;;23.69;32.15
37634;BME280;32048;49.902;22.508;2023-06-04T08:08:28;99178.31;;;23.85;32.20
37634;BME280;32048;49.902;22.508;2023-06-04T08:10:55;99181.78;;;23.95;31.62
37634;BME280;32048;49.902;22.508;2023-06-04T08:13:22;99181.66;;;23.69;31.14
37634;BME280;32048;49.902;22.508;2023-06-04T08:15:49;99176.41;;;23.67;32.57
37634;BME280;32048;49.902;22.508;2023-06-04T08:18:17;99176.91;;;23.99;32.67
37634;BME280;32048;49.902;22.508;2023-06-04T08:20:44;99190.19;;;24.36;31.14
37634;BME280;32048;49.902;22.508;2023-06-04T08:23:11;99176.56;;;24.38;30.52
37634;BME280;32048;49.902;22.508;2023-06-04T08:25:38;99179.25;;;24.56;32.90
37634;BME280;32048;49.902;22.508;2023-06-04T08:28:05;99173.50;;;24.85;31.33
37634;BME280;32048;49.902;22.508;2023-06-04T08:30:33;99173.22;;;25.04;29.89
37634;BME280;32048;49.902;22.508;2023-06-04T08:33:02;99171.59;;;24.77;29.92
37634;BME280;32048;49.902;22.508;2023-06-04T08:35:30;99179.13;;;24.65;31.58
37634;BME280;32048;49.902;22.508;2023-06-04T08:37:57;99181.31;;;24.62;30.16
37634;BME280;32048;49.902;22.508;2023-06-04T08:40:24;99180.03;;;24.74;31.09
37634;BME280;32048;49.902;22.508;2023-06-04T08:42:55;99176.50;;;25.16;30.31
37634;BME280;32048;49.902;22.508;2023-06-04T08:45:25;99181.91;;;25.67;30.31
37634;BME280;32048;49.902;22.508;2023-06-04T08:47:53;99172.69;;;26.10;29.39
37634;BME280;32048;49.902;22.508;2023-06-04T08:50:22;99180.78;;;26.19;29.23
37634;BME280;32048;49.902;22.508;2023-06-04T08:52:54;99183.28;;;25.71;28.80
37634;BME280;32048;49.902;22.508;2023-06-04T08:55:22;99180.53;;;25.55;28.99
37634;BME280;32048;49.902;22.508;2023-06-04T08:57:50;99188.13;;;24.74;30.19
37634;BME280;32048;49.902;22.508;2023-06-04T09:00:20;99170.16;;;23.95;31.30
37634;BME280;32048;49.902;22.508;2023-06-04T09:02:49;99173.59;;;23.87;32.44
37634;BME280;32048;49.902;22.508;2023-06-04T09:05:20;99172.84;;;24.13;30.93
37634;BME280;32048;49.902;22.508;2023-06-04T09:07:48;99178.16;;;24.04;31.46
37634;BME280;32048;49.902;22.508;2023-06-04T09:10:22;99185.63;;;23.75;31.45
37634;BME280;32048;49.902;22.508;2023-06-04T09:12:50;99179.28;;;23.66;32.55
37634;BME280;32048;49.902;22.508;2023-06-04T09:15:18;99178.06;;;23.78;32.42
37634;BME280;32048;49.902;22.508;2023-06-04T09:17:45;99172.25;;;23.73;31.72
37634;BME280;32048;49.902;22.508;2023-06-04T09:20:22;99173.09;;;23.74;33.83
37634;BME280;32048;49.902;22.508;2023-06-04T09:22:50;99167.22;;;24.50;32.92
37634;BME280;32048;49.902;22.508;2023-06-04T09:25:23;99169.38;;;25.07;31.29
37634;BME280;32048;49.902;22.508;2023-06-04T09:27:53;99171.16;;;25.24;31.45
37634;BME280;32048;49.902;22.508;2023-06-04T09:30:23;99169.38;;;25.58;31.28
37634;BME280;32048;49.902;22.508;2023-06-04T09:32:50;99159.00;;;25.87;30.86
37634;BME280;32048;49.902;22.508;2023-06-04T09:35:20;99153.38;;;26.46;30.57
37634;BME280;32048;49.902;22.508;2023-06-04T09:37:57;99165.94;;;26.95;28.94
37634;BME280;32048;49.902;22.508;2023-06-04T09:40:34;99152.31;;;26.80;29.02
37634;BME280;32048;49.902;22.508;2023-06-04T09:43:01;99154.09;;;27.04;28.51
37634;BME280;32048;49.902;22.508;2023-06-04T09:45:33;99165.84;;;27.28;28.51
37634;BME280;32048;49.902;22.508;2023-06-04T09:48:03;99154.84;;;27.29;28.84
37634;BME280;32048;49.902;22.508;2023-06-04T09:50:35;99150.38;;;27.36;28.13
37634;BME280;32048;49.902;22.508;2023-06-04T09:53:17;99157.97;;;27.72;28.58
37634;BME280;32048;49.902;22.508;2023-06-04T09:55:44;99159.94;;;28.48;26.85
37634;BME280;32048;49.902;22.508;2023-06-04T09:58:25;99163.78;;;28.98;25.29
37634;BME280;32048;49.902;22.508;2023-06-04T10:00:56;99149.00;;;28.86;27.59
37634;BME280;32048;49.902;22.508;2023-06-04T10:03:24;99150.22;;;28.68;26.37
37634;BME280;32048;49.902;22.508;2023-06-04T10:05:53;99152.16;;;28.74;26.95
37634;BME280;32048;49.902;22.508;2023-06-04T10:08:23;99152.53;;;28.56;27.36
37634;BME280;32048;49.902;22.508;2023-06-04T10:10:58;99171.25;;;28.13;25.83
37634;BME280;32048;49.902;22.508;2023-06-04T10:13:42;99155.31;;;27.33;28.03
37634;BME280;32048;49.902;22.508;2023-06-04T10:16:12;99147.78;;;27.04;28.05
37634;BME280;32048;49.902;22.508;2023-06-04T10:18:59;99149.50;;;27.05;28.33
37634;BME280;32048;49.902;22.508;2023-06-04T10:21:27;99138.00;;;27.42;27.60
37634;BME280;32048;49.902;22.508;2023-06-04T10:23:58;99148.06;;;27.88;27.28
37634;BME280;32048;49.902;22.508;2023-06-04T10:26:26;99140.38;;;28.29;26.24
37634;BME280;32048;49.902;22.508;2023-06-04T10:28:56;99154.38;;;28.03;25.35
37634;BME280;32048;49.902;22.508;2023-06-04T10:31:24;99153.09;;;27.36;27.05
37634;BME280;32048;49.902;22.508;2023-06-04T10:33:57;99154.88;;;26.65;27.18
37634;BME280;32048;49.902;22.508;2023-06-04T10:36:25;99153.06;;;26.00;27.90
37634;BME280;32048;49.902;22.508;2023-06-04T10:38:53;99144.91;;;25.67;29.71
37634;BME280;32048;49.902;22.508;2023-06-04T10:41:23;99152.78;;;25.44;28.90
37634;BME280;32048;49.902;22.508;2023-06-04T10:43:51;99152.75;;;25.28;29.31
37634;BME280;32048;49.902;22.508;2023-06-04T10:46:20;99137.91;;;25.40;30.28
37634;BME280;32048;49.902;22.508;2023-06-04T10:48:52;99136.75;;;25.51;30.49
37634;BME280;32048;49.902;22.508;2023-06-04T10:51:33;99144.38;;;25.47;31.21
37634;BME280;32048;49.902;22.508;2023-06-04T10:54:02;99140.41;;;25.92;30.35
37634;BME280;32048;49.902;22.508;2023-06-04T10:56:34;99137.28;;;26.53;31.28
37634;BME280;32048;49.902;22.508;2023-06-04T10:59:13;99133.38;;;27.11;29.39
37634;BME280;32048;49.902;22.508;2023-06-04T11:01:41;99151.38;;;27.67;26.37
37634;BME280;32048;49.902;22.508;2023-06-04T11:04:24;99139.38;;;27.61;27.84
37634;BME280;32048;49.902;22.508;2023-06-04T11:07:04;99136.81;;;27.68;28.71
37634;BME280;32048;49.902;22.508;2023-06-04T11:09:36;99138.53;;;28.30;27.01
37634;BME280;32048;49.902;22.508;2023-06-04T11:12:05;99126.34;;;28.26;26.38
37634;BME280;32048;49.902;22.508;2023-06-04T11:14:32;99143.97;;;28.30;26.63
37634;BME280;32048;49.902;22.508;2023-06-04T11:17:09;99130.94;;;28.40;26.00
37634;BME280;32048;49.902;22.508;2023-06-04T11:19:37;99143.03;;;27.99;26.73
37634;BME280;32048;49.902;22.508;2023-06-04T11:22:05;99129.53;;;27.37;26.52
37634;BME280;32048;49.902;22.508;2023-06-04T11:24:32;99134.78;;;27.39;28.21
37634;BME280;32048;49.902;22.508;2023-06-04T11:27:00;99140.59;;;28.05;28.57
37634;BME280;32048;49.902;22.508;2023-06-04T11:29:43;99138.44;;;28.38;25.60
37634;BME280;32048;49.902;22.508;2023-06-04T11:32:21;99140.47;;;28.21;26.41
37634;BME280;32048;49.902;22.508;2023-06-04T11:34:48;99133.94;;;28.45;26.58
37634;BME280;32048;49.902;22.508;2023-06-04T11:37:15;99132.22;;;28.67;26.83
37634;BME280;32048;49.902;22.508;2023-06-04T11:39:42;99140.25;;;29.05;26.81
37634;BME280;32048;49.902;22.508;2023-06-04T11:42:12;99144.91;;;29.41;26.48
37634;BME280;32048;49.902;22.508;2023-06-04T11:44:39;99135.97;;;29.83;26.17
37634;BME280;32048;49.902;22.508;2023-06-04T11:47:12;99139.31;;;30.07;26.33
37634;BME280;32048;49.902;22.508;2023-06-04T11:49:39;99130.75;;;30.10;27.08
37634;BME280;32048;49.902;22.508;2023-06-04T11:52:07;99126.91;;;30.26;25.42
37634;BME280;32048;49.902;22.508;2023-06-04T11:54:34;99125.94;;;30.12;26.12
37634;BME280;32048;49.902;22.508;2023-06-04T11:57:05;99140.13;;;29.43;25.58
37634;BME280;32048;49.902;22.508;2023-06-04T11:59:32;99135.78;;;28.83;26.64
37634;BME280;32048;49.902;22.508;2023-06-04T12:02:02;99136.53;;;28.24;26.93
37634;BME280;32048;49.902;22.508;2023-06-04T12:04:30;99132.06;;;27.93;27.83
37634;BME280;32048;49.902;22.508;2023-06-04T12:07:00;99132.44;;;27.90;27.79
37634;BME280;32048;49.902;22.508;2023-06-04T12:09:30;99130.28;;;28.00;28.05
37634;BME280;32048;49.902;22.508;2023-06-04T12:12:04;99119.88;;;28.27;27.41
37634;BME280;32048;49.902;22.508;2023-06-04T12:14:32;99125.66;;;28.62;26.19
37634;BME280;32048;49.902;22.508;2023-06-04T12:17:01;99127.22;;;28.41;26.61
37634;BME280;32048;49.902;22.508;2023-06-04T12:19:28;99123.47;;;27.81;27.67
37634;BME280;32048;49.902;22.508;2023-06-04T12:22:06;99133.06;;;27.37;28.07
37634;BME280;32048;49.902;22.508;2023-06-04T12:24:46;99131.16;;;26.67;28.27
37634;BME280;32048;49.902;22.508;2023-06-04T12:27:13;99122.13;;;25.95;30.24
37634;BME280;32048;49.902;22.508;2023-06-04T12:29:41;99128.84;;;25.49;29.95
37634;BME280;32048;49.902;22.508;2023-06-04T12:32:09;99136.22;;;25.39;31.30
37634;BME280;32048;49.902;22.508;2023-06-04T12:34:40;99129.84;;;25.57;30.61
37634;BME280;32048;49.902;22.508;2023-06-04T12:37:08;99135.75;;;25.52;30.36
37634;BME280;32048;49.902;22.508;2023-06-04T12:39:35;99130.44;;;25.26;30.15
37634;BME280;32048;49.902;22.508;2023-06-04T12:42:06;99130.50;;;25.00;32.13
37634;BME280;32048;49.902;22.508;2023-06-04T12:44:38;99129.31;;;24.94;32.28
37634;BME280;32048;49.902;22.508;2023-06-04T12:47:07;99124.94;;;25.01;32.18
37634;BME280;32048;49.902;22.508;2023-06-04T12:49:34;99130.38;;;25.18;33.45
37634;BME280;32048;49.902;22.508;2023-06-04T12:52:02;99129.41;;;25.19;32.08
37634;BME280;32048;49.902;22.508;2023-06-04T12:54:29;99123.69;;;25.22;32.30
37634;BME280;32048;49.902;22.508;2023-06-04T12:56:58;99125.53;;;25.21;31.54
37634;BME280;32048;49.902;22.508;2023-06-04T12:59:26;99121.75;;;25.06;32.75
37634;BME280;32048;49.902;22.508;2023-06-04T13:01:54;99124.59;;;25.04;30.69